Time;durP1;ratioP1;P1;durP2;ratioP2;P2;SDS_P1;SDS_P2;PMS_P1;PMS_P2;Temp;Humidity;BMP_temperature;BMP_pressure;BME280_temperature;BME280_humidity;BME280_pressure;Samples;Min_cycle;Max_cycle;Signal;HPM_P1;HPM_P2
2022/01/11 00:00:13;;;;;;;0.70;0.50;;;4.50;95.80;;;4.23;67.18;94361.78;5076064;28;20470;-65
2022/01/11 00:02:44;;;;;;;0.60;0.50;;;4.50;95.70;;;4.22;67.07;94360.13;5079926;28;20442;-60
2022/01/11 00:05:18;;;;;;;0.70;0.60;;;4.40;95.60;;;4.19;66.90;94360.38;5082688;28;20554;-63
2022/01/11 00:07:45;;;;;;;0.80;0.50;;;4.40;95.60;;;4.17;67.15;94363.09;5079862;28;20473;-60
2022/01/11 00:10:21;;;;;;;0.70;0.40;;;4.40;95.60;;;4.13;67.28;94357.25;5081424;28;20485;-59
2022/01/11 00:12:49;;;;;;;0.70;0.60;;;4.40;95.70;;;4.10;67.29;94357.47;5080175;28;20478;-59
2022/01/11 00:15:17;;;;;;;0.67;0.50;;;4.30;95.70;;;4.04;67.52;94362.31;5075464;28;20469;-58
2022/01/11 00:17:44;;;;;;;0.80;0.57;;;4.30;96.00;;;4.01;68.10;94372.94;5078799;28;20463;-60
2022/01/11 00:20:13;;;;;;;0.80;0.50;;;4.30;96.10;;;3.94;68.33;94378.59;5078248;28;21005;-60
2022/01/11 00:24:26;;;;;;;1.20;0.50;;;4.20;96.40;;;3.91;68.24;94380.59;5075861;28;20486;-65
2022/01/11 00:25:29;;;;;;;0.70;0.50;;;4.20;96.40;;;3.87;68.27;94382.63;5076648;28;20571;-66
2022/01/11 00:27:58;;;;;;;1.30;0.60;;;4.10;96.50;;;3.84;68.58;94372.44;5077164;28;20499;-59
2022/01/11 00:30:30;;;;;;;1.07;0.70;;;4.10;96.40;;;3.81;68.25;94379.59;5080385;28;20487;-65
2022/01/11 00:33:00;;;;;;;0.80;0.60;;;4.10;96.30;;;3.79;67.71;94373.69;5080018;28;20454;-65
2022/01/11 00:35:38;;;;;;;0.93;0.50;;;4.00;96.00;;;3.76;67.53;94379.94;5078754;28;21009;-64
2022/01/11 00:38:05;;;;;;;0.80;0.60;;;4.00;95.80;;;3.75;67.06;94380.91;5081876;28;20442;-59
2022/01/11 00:40:33;;;;;;;0.80;0.50;;;4.00;95.60;;;3.74;67.04;94382.66;5076134;28;21059;-65
2022/01/11 00:43:01;;;;;;;0.80;0.60;;;4.00;95.50;;;3.75;66.76;94384.31;5077932;28;20542;-59
2022/01/11 00:45:29;;;;;;;1.10;0.60;;;4.00;95.30;;;3.75;66.21;94389.53;5074730;28;20462;-60
2022/01/11 00:47:56;;;;;;;0.80;0.50;;;4.00;95.00;;;3.73;66.07;94387.97;5079022;28;20504;-61
2022/01/11 00:50:25;;;;;;;0.70;0.57;;;4.00;95.00;;;3.72;66.38;94394.13;5074172;28;21044;-59
2022/01/11 00:52:52;;;;;;;0.70;0.50;;;4.00;94.80;;;3.72;65.78;94399.31;5079357;28;20462;-60
2022/01/11 00:55:19;;;;;;;0.70;0.50;;;4.00;94.70;;;3.72;65.93;94384.53;5081504;28;20466;-60
2022/01/11 00:57:47;;;;;;;0.80;0.53;;;4.00;94.60;;;3.73;65.86;94400.97;5078559;28;20475;-65
2022/01/11 01:00:16;;;;;;;0.73;0.60;;;4.00;94.70;;;3.76;65.93;94405.94;5078757;28;20978;-59
2022/01/11 01:02:43;;;;;;;0.77;0.53;;;4.00;94.70;;;3.77;65.30;94413.63;5077916;28;20505;-65
2022/01/11 01:05:11;;;;;;;1.13;1.03;;;4.00;94.40;;;3.81;65.38;94414.28;5080251;28;20523;-59
2022/01/11 01:07:38;;;;;;;0.93;0.60;;;4.00;94.40;;;3.84;65.97;94421.84;5072575;28;20485;-60
2022/01/11 01:10:14;;;;;;;0.80;0.57;;;4.10;94.60;;;3.90;65.43;94423.16;5074793;28;20490;-65
2022/01/11 01:12:42;;;;;;;0.80;0.70;;;4.10;94.60;;;3.95;65.66;94423.69;5075414;28;20458;-59
2022/01/11 01:15:10;;;;;;;0.70;0.53;;;4.20;94.50;;;3.99;65.83;94427.72;5074595;28;20483;-59
2022/01/11 01:17:38;;;;;;;0.97;0.70;;;4.20;94.40;;;4.04;65.61;94424.78;5077383;28;20485;-62
2022/01/11 01:20:08;;;;;;;1.37;0.57;;;4.30;94.50;;;4.07;65.14;94429.75;5079061;28;20470;-67
2022/01/11 01:22:35;;;;;;;0.80;0.70;;;4.30;94.20;;;4.08;64.74;94426.22;5077875;28;20454;-66
2022/01/11 01:25:02;;;;;;;0.70;0.60;;;4.30;93.70;;;4.09;65.38;94433.06;5077591;28;20495;-64
2022/01/11 01:27:30;;;;;;;0.80;0.70;;;4.30;94.00;;;4.12;65.44;94446.69;5075532;28;20454;-60
2022/01/11 01:29:57;;;;;;;0.70;0.50;;;4.40;94.30;;;4.16;65.17;94441.28;5074770;28;20604;-59
2022/01/11 01:32:25;;;;;;;0.80;0.50;;;4.40;94.30;;;4.19;65.59;94446.25;5076380;28;20464;-65
2022/01/11 01:34:56;;;;;;;0.93;0.70;;;4.40;94.10;;;4.20;64.84;94448.75;5074978;28;20447;-60
2022/01/11 01:37:23;;;;;;;0.80;0.80;;;4.40;94.10;;;4.22;65.21;94444.25;5071227;28;20525;-60
2022/01/11 01:39:50;;;;;;;0.70;0.50;;;4.50;94.00;;;4.24;65.06;94446.75;5078380;28;20455;-64
2022/01/11 01:42:22;;;;;;;1.40;0.70;;;4.50;94.50;;;4.25;64.67;94438.81;5079280;28;20802;-64
2022/01/11 01:44:50;;;;;;;0.70;0.50;;;4.50;93.90;;;4.28;64.95;94449.00;5073975;28;20451;-59
2022/01/11 01:47:17;;;;;;;0.80;0.60;;;4.50;94.00;;;4.29;65.12;94445.47;5077409;28;20487;-65
2022/01/11 01:49:45;;;;;;;0.77;0.60;;;4.50;94.00;;;4.30;64.82;94447.13;5076167;28;20600;-64
2022/01/11 01:52:14;;;;;;;0.97;0.87;;;4.50;93.80;;;4.31;65.21;94446.19;5077444;28;20540;-60
2022/01/11 01:54:42;;;;;;;0.80;0.50;;;4.60;94.10;;;4.34;64.58;94446.91;5078188;28;20959;-60
2022/01/11 01:57:09;;;;;;;0.80;0.50;;;4.60;93.90;;;4.34;64.70;94446.91;5077421;28;20542;-64
2022/01/11 01:59:38;;;;;;;0.80;0.50;;;4.60;93.80;;;4.31;64.58;94446.19;5072877;28;20447;-65
2022/01/11 02:02:08;;;;;;;0.90;0.60;;;4.60;93.60;;;4.30;64.73;94451.50;5079886;28;20470;-65
2022/01/11 02:04:35;;;;;;;0.80;0.60;;;4.50;93.60;;;4.29;64.64;94445.47;5071918;28;20451;-59
2022/01/11 02:07:04;;;;;;;1.10;0.50;;;4.50;93.50;;;4.29;64.87;94452.44;5075941;28;20455;-65
2022/01/11 02:09:33;;;;;;;0.70;0.53;;;4.50;93.70;;;4.29;64.42;94455.88;5076689;28;20451;-64
2022/01/11 02:12:00;;;;;;;0.90;0.50;;;4.50;93.60;;;4.29;64.79;94450.69;5074532;28;20494;-63
2022/01/11 02:14:27;;;;;;;1.20;0.70;;;4.50;93.60;;;4.30;64.22;94461.91;5074160;28;20455;-60
2022/01/11 02:16:56;;;;;;;3.63;0.50;;;4.50;93.30;;;4.29;63.77;94455.03;5073416;28;20463;-64
2022/01/11 02:19:24;;;;;;;0.80;0.50;;;4.50;93.10;;;4.29;63.92;94465.44;5073981;28;20473;-60
2022/01/11 02:21:52;;;;;;;0.90;0.60;;;4.50;93.20;;;4.26;64.20;94458.72;5072517;28;20471;-59
2022/01/11 02:24:20;;;;;;;0.70;0.50;;;4.50;93.30;;;4.27;64.27;94462.97;5076357;28;20531;-64
2022/01/11 02:26:47;;;;;;;1.50;0.70;;;4.50;93.40;;;4.24;63.60;94468.38;5073415;28;20470;-60
2022/01/11 02:29:14;;;;;;;0.70;0.60;;;4.50;93.00;;;4.22;64.12;94470.28;5073390;28;20517;-60
2022/01/11 02:31:41;;;;;;;0.70;0.47;;;4.50;93.60;;;4.21;63.82;94468.63;5074572;28;20536;-60
2022/01/11 02:34:09;;;;;;;1.23;0.60;;;4.50;93.10;;;4.19;64.07;94465.28;5077118;28;20451;-59
2022/01/11 02:36:37;;;;;;;0.80;0.60;;;4.40;93.10;;;4.19;64.11;94475.72;5076075;28;20474;-59
2022/01/11 02:39:05;;;;;;;1.17;0.50;;;4.40;93.20;;;4.20;64.20;94479.97;5077190;28;21007;-61
2022/01/11 02:41:33;;;;;;;0.70;0.60;;;4.40;93.40;;;4.21;64.15;94483.41;5077349;28;20482;-59
2022/01/11 02:44:00;;;;;;;1.37;1.27;;;4.40;93.30;;;4.20;63.60;94477.38;5071981;28;20447;-63
2022/01/11 02:46:28;;;;;;;1.20;1.10;;;4.40;93.00;;;4.20;64.04;94482.59;5072757;28;20467;-59
2022/01/11 02:48:57;;;;;;;1.33;1.23;;;4.40;92.90;;;4.19;64.07;94488.72;5075905;28;20454;-58
2022/01/11 02:51:25;;;;;;;1.17;0.80;;;4.40;93.10;;;4.19;64.02;94491.31;5075010;28;20486;-60
2022/01/11 02:53:54;;;;;;;2.50;2.30;;;4.40;93.10;;;4.17;63.46;94490.63;5076783;28;20812;-59
2022/01/11 02:56:23;;;;;;;2.03;1.50;;;4.40;92.50;;;4.15;63.79;94489.06;5074317;28;20474;-64
2022/01/11 02:58:51;;;;;;;2.90;1.13;;;4.40;92.90;;;4.13;63.88;94492.59;5076154;28;20458;-64
2022/01/11 03:01:18;;;;;;;0.80;0.60;;;4.40;93.00;;;4.10;64.17;94487.59;5074114;28;20463;-58
2022/01/11 03:03:45;;;;;;;0.80;0.80;;;4.40;93.30;;;4.13;64.67;94491.78;5073920;28;20867;-64
2022/01/11 03:06:12;;;;;;;0.90;0.70;;;4.40;93.50;;;4.10;64.40;94486.78;5073450;28;20474;-64
2022/01/11 03:08:42;;;;;;;0.70;0.60;;;4.30;93.40;;;4.09;64.97;94498.13;5075343;28;20455;-65
2022/01/11 03:11:09;;;;;;;0.70;0.50;;;4.30;93.50;;;4.05;64.77;94494.91;5076325;28;20542;-59
2022/01/11 03:13:39;;;;;;;0.80;0.67;;;4.30;93.80;;;4.05;65.18;94499.31;5074282;28;20463;-59
2022/01/11 03:16:07;;;;;;;2.20;0.57;;;4.30;93.90;;;4.05;65.52;94505.31;5073688;28;20482;-60
2022/01/11 03:18:34;;;;;;;1.17;0.70;;;4.30;94.10;;;4.09;65.57;94495.53;5073839;28;20458;-65
2022/01/11 03:21:02;;;;;;;1.80;0.70;;;4.30;94.20;;;4.12;65.66;94503.09;5078733;28;20475;-65
2022/01/11 03:23:29;;;;;;;1.27;0.63;;;4.30;94.40;;;4.14;66.05;94493.44;5078492;28;20454;-64
2022/01/11 03:26:01;;;;;;;0.90;0.70;;;4.40;94.50;;;4.16;65.36;94501.13;5077545;28;20474;-59
2022/01/11 03:28:29;;;;;;;0.80;0.70;;;4.40;94.50;;;4.18;66.09;94510.47;5076313;28;20446;-65
2022/01/11 03:30:58;;;;;;;0.70;0.50;;;4.40;94.60;;;4.19;65.98;94501.75;5076580;28;20493;-59
2022/01/11 03:33:26;;;;;;;0.80;0.60;;;4.40;94.60;;;4.19;65.86;94506.13;5077598;28;20891;-65
2022/01/11 03:35:56;;;;;;;1.10;0.80;;;4.50;94.80;;;4.20;66.12;94513.81;5081564;28;20594;-64
2022/01/11 03:38:25;;;;;;;0.90;0.60;;;4.50;94.80;;;4.20;66.41;94507.75;5077788;28;20453;-66
2022/01/11 03:40:52;;;;;;;0.80;0.60;;;4.50;94.90;;;4.19;66.11;94509.53;5081397;28;20473;-64
2022/01/11 03:43:22;;;;;;;0.80;0.60;;;4.50;94.70;;;4.20;66.22;94513.81;5079127;28;20568;-65
2022/01/11 03:45:50;;;;;;;0.80;0.70;;;4.50;94.80;;;4.21;66.35;94522.44;5079176;28;20526;-60
2022/01/11 03:48:19;;;;;;;1.00;0.80;;;4.50;94.80;;;4.19;66.28;94517.34;5079775;28;20501;-64
2022/01/11 03:50:52;;;;;;;1.07;0.97;;;4.50;94.70;;;4.19;66.07;94512.16;5081962;28;20485;-65
2022/01/11 03:53:21;;;;;;;0.80;0.80;;;4.50;94.70;;;4.19;65.98;94517.34;5078265;28;20802;-59
2022/01/11 03:56:10;;;;;;;1.00;0.80;;;4.50;94.70;;;4.18;65.96;94518.28;5078563;28;20483;-59
2022/01/11 03:58:37;;;;;;;1.20;1.10;;;4.50;94.60;;;4.16;65.77;94522.78;5076064;28;20453;-65
2022/01/11 04:01:05;;;;;;;1.50;0.90;;;4.40;94.50;;;4.17;65.86;94531.41;5074989;28;20857;-59
2022/01/11 04:03:36;;;;;;;3.57;1.30;;;4.40;94.60;;;4.18;66.00;94533.09;5077433;28;20523;-60
2022/01/11 04:06:03;;;;;;;1.77;1.03;;;4.40;94.60;;;4.16;65.31;94534.97;5078529;28;20466;-60
2022/01/11 04:08:32;;;;;;;1.00;0.90;;;4.40;94.10;;;4.11;65.43;94541.31;5078341;28;20446;-65
2022/01/11 04:11:00;;;;;;;2.20;1.33;;;4.40;94.30;;;4.08;65.89;94538.94;5079721;28;20490;-59
2022/01/11 04:13:27;;;;;;;1.40;1.30;;;4.30;94.30;;;4.09;65.35;94534.56;5076409;28;20982;-64
2022/01/11 04:15:54;;;;;;;1.10;0.97;;;4.30;94.20;;;4.07;65.52;94541.66;5077126;28;20863;-59
2022/01/11 04:18:22;;;;;;;1.63;1.20;;;4.30;94.20;;;4.06;65.63;94547.78;5075615;28;20470;-64
2022/01/11 04:20:51;;;;;;;0.97;0.87;;;4.30;94.40;;;4.07;65.97;94550.28;5076014;28;20483;-65
2022/01/11 04:23:18;;;;;;;1.10;1.00;;;4.30;94.30;;;4.09;65.37;94547.56;5072822;28;20447;-64
2022/01/11 04:25:45;;;;;;;0.90;0.90;;;4.30;94.20;;;4.10;65.63;94567.47;5077534;28;20962;-61
2022/01/11 04:28:13;;;;;;;1.80;1.10;;;4.30;94.30;;;4.09;65.55;94558.84;5082962;28;20457;-66
2022/01/11 04:30:40;;;;;;;1.20;1.10;;;4.30;94.10;;;4.08;64.55;94562.38;5077447;28;20521;-64
2022/01/11 04:33:08;;;;;;;1.00;0.80;;;4.30;93.60;;;4.04;63.64;94576.53;5080123;28;20466;-61
2022/01/11 04:35:35;;;;;;;0.73;0.60;;;4.30;92.80;;;4.00;63.92;94579.44;5079223;28;20478;-58
2022/01/11 04:38:04;;;;;;;1.97;0.80;;;4.30;92.90;;;3.94;63.27;94571.13;5078425;28;20449;-66
2022/01/11 04:40:31;;;;;;;1.77;0.83;;;4.20;92.40;;;3.91;63.93;94573.94;5076029;28;20626;-60
2022/01/11 04:42:58;;;;;;;0.90;0.70;;;4.20;92.90;;;3.88;63.66;94581.16;5077084;28;20860;-64
2022/01/11 04:45:26;;;;;;;1.00;0.90;;;4.10;92.40;;;3.86;64.33;94573.44;5073017;28;20474;-65
2022/01/11 04:47:56;;;;;;;1.20;1.03;;;4.10;93.10;;;3.87;64.21;94582.94;5082511;28;20508;-59
2022/01/11 04:50:25;;;;;;;1.00;0.90;;;4.10;92.90;;;3.88;64.44;94584.56;5077101;28;20895;-63
2022/01/11 04:52:53;;;;;;;1.60;1.50;;;4.10;93.30;;;3.92;63.63;94590.41;5078577;28;20452;-59
2022/01/11 04:55:22;;;;;;;2.30;1.73;;;4.10;92.90;;;3.94;64.72;94591.94;5076664;28;20520;-62
2022/01/11 04:57:49;;;;;;;1.63;1.23;;;4.10;93.00;;;3.97;64.33;94590.06;5079690;28;20455;-62
2022/01/11 05:00:18;;;;;;;5.83;3.40;;;4.20;93.30;;;4.01;64.30;94596.72;5078527;28;20471;-59
2022/01/11 05:02:46;;;;;;;2.90;2.20;;;4.20;93.50;;;4.03;64.85;94600.03;5073855;28;20839;-61
2022/01/11 05:05:14;;;;;;;1.97;1.87;;;4.30;93.60;;;4.04;64.52;94602.53;5075265;28;20477;-59
2022/01/11 05:07:42;;;;;;;2.73;2.43;;;4.30;93.40;;;4.07;64.50;94604.94;5074111;28;20462;-62
2022/01/11 05:10:10;;;;;;;2.23;2.03;;;4.30;93.40;;;4.09;64.10;94610.03;5072491;28;20467;-61
2022/01/11 05:12:39;;;;;;;5.20;4.07;;;4.30;93.20;;;4.11;64.39;94613.38;5078586;28;20490;-60
2022/01/11 05:15:09;;;;;;;4.43;3.70;;;4.30;93.10;;;4.12;63.96;94602.00;5078087;28;20606;-60
2022/01/11 05:17:36;;;;;;;4.73;3.40;;;4.40;93.10;;;4.13;64.15;94612.31;5076234;28;20473;-63
2022/01/11 05:20:05;;;;;;;8.13;5.20;;;4.40;93.10;;;4.14;63.11;94610.56;5079405;28;20462;-62
2022/01/11 05:22:32;;;;;;;8.60;2.33;;;4.40;92.30;;;4.15;62.84;94609.59;5077627;28;20538;-63
2022/01/11 05:25:00;;;;;;;1.83;1.67;;;4.40;92.30;;;4.14;62.28;94607.97;5074911;28;20908;-62
2022/01/11 05:27:28;;;;;;;1.37;1.27;;;4.40;91.90;;;4.14;62.15;94628.78;5076823;28;20776;-63
2022/01/11 05:29:56;;;;;;;1.43;1.33;;;4.40;91.80;;;4.13;62.41;94627.94;5073849;28;20454;-61
2022/01/11 05:32:24;;;;;;;1.43;1.20;;;4.40;91.80;;;4.15;62.82;94619.19;5071718;28;20483;-60
2022/01/11 05:34:51;;;;;;;5.50;1.73;;;4.40;92.10;;;4.15;62.17;94625.22;5073078;28;20482;-60
2022/01/11 05:37:19;;;;;;;5.67;2.17;;;4.40;91.70;;;4.16;62.29;94626.06;5075328;28;20451;-64
2022/01/11 05:39:46;;;;;;;1.57;1.30;;;4.40;91.80;;;4.17;61.28;94628.56;5074011;28;21175;-65
2022/01/11 05:42:13;;;;;;;3.13;1.37;;;4.40;90.90;;;4.15;60.24;94629.59;5075044;28;20560;-68
2022/01/11 05:44:40;;;;;;;1.30;1.20;;;4.40;90.20;;;4.13;60.96;94629.72;5074423;28;20462;-59
2022/01/11 05:47:09;;;;;;;1.77;1.40;;;4.40;90.70;;;4.10;61.73;94635.13;5075408;28;20451;-61
2022/01/11 05:49:36;;;;;;;0.97;0.87;;;4.40;91.00;;;4.09;61.88;94636.91;5076695;28;20447;-59
2022/01/11 05:52:04;;;;;;;3.13;1.00;;;4.30;91.10;;;4.08;60.51;94645.63;5073738;28;20982;-65
2022/01/11 05:54:32;;;;;;;1.37;1.10;;;4.30;90.20;;;4.08;60.47;94650.03;5074330;28;20454;-64
2022/01/11 05:56:59;;;;;;;1.60;1.13;;;4.30;90.30;;;4.07;61.56;94650.94;5081887;28;20467;-61
2022/01/11 05:59:26;;;;;;;4.73;1.00;;;4.30;90.70;;;4.06;61.16;94641.47;5070660;28;20454;-61
2022/01/11 06:01:53;;;;;;;1.37;1.27;;;4.30;90.70;;;4.07;60.82;94650.94;5081398;28;20467;-66
2022/01/11 06:04:23;;;;;;;1.00;0.90;;;4.30;90.60;;;4.07;61.30;94653.56;5077194;28;20491;-60
2022/01/11 06:06:51;;;;;;;1.57;1.47;;;4.30;90.70;;;4.08;61.06;94656.06;5076546;28;20462;-60
2022/01/11 06:09:18;;;;;;;1.50;1.40;;;4.30;90.70;;;4.10;61.33;94663.75;5074521;28;20998;-61
2022/01/11 06:11:45;;;;;;;2.83;2.63;;;4.30;90.70;;;4.11;61.22;94666.25;5079721;28;20495;-60
2022/01/11 06:14:13;;;;;;;2.40;2.30;;;4.30;90.70;;;4.09;61.00;94678.53;5074356;28;20451;-61
2022/01/11 06:16:40;;;;;;;4.77;3.97;;;4.30;90.70;;;4.09;61.27;94677.69;5076973;28;20915;-65
2022/01/11 06:19:08;;;;;;;5.90;2.57;;;4.30;90.70;;;4.10;61.03;94685.41;5077249;28;20442;-61
2022/01/11 06:21:36;;;;;;;4.07;3.00;;;4.30;90.70;;;4.11;60.85;94687.06;5078434;28;20475;-61
2022/01/11 06:24:05;;;;;;;9.40;3.70;;;4.40;90.30;;;4.12;60.45;94693.09;5071646;28;20959;-61
2022/01/11 06:26:32;;;;;;;1.60;1.50;;;4.40;90.20;;;4.10;58.05;94685.41;5074659;28;20500;-66
2022/01/11 06:29:01;;;;;;;1.57;1.47;;;4.30;87.00;;;4.08;59.81;94692.47;5078943;28;20450;-66
2022/01/11 06:31:29;;;;;;;1.00;0.90;;;4.30;89.00;;;4.08;59.59;94695.09;5073170;28;20486;-66
2022/01/11 06:33:57;;;;;;;1.10;1.00;;;4.30;89.30;;;4.07;59.96;94698.63;5079369;28;20449;-61
2022/01/11 06:36:24;;;;;;;1.27;1.17;;;4.30;89.60;;;4.08;59.80;94702.06;5078308;28;20466;-60
2022/01/11 06:38:53;;;;;;;1.37;1.27;;;4.30;89.40;;;4.09;60.15;94706.31;5077663;28;20478;-68
2022/01/11 06:41:20;;;;;;;3.73;1.40;;;4.30;89.60;;;4.10;59.97;94714.03;5076183;28;20482;-61
2022/01/11 06:43:47;;;;;;;2.27;1.67;;;4.40;89.50;;;4.10;60.48;94721.84;5072433;28;20451;-66
2022/01/11 06:46:15;;;;;;;2.77;2.50;;;4.30;89.70;;;4.11;60.49;94718.31;5076054;28;21006;-66
2022/01/11 06:48:42;;;;;;;5.50;2.70;;;4.40;90.00;;;4.12;59.78;94730.38;5072746;28;20534;-61
2022/01/11 06:51:10;;;;;;;2.07;1.60;;;4.40;89.10;;;4.10;59.76;94726.22;5078042;28;20466;-65
2022/01/11 06:53:37;;;;;;;1.60;1.50;;;4.40;89.20;;;4.09;59.87;94720.19;5079978;28;20466;-66
2022/01/11 06:56:06;;;;;;;2.03;1.53;;;4.30;89.10;;;4.06;57.49;94719.53;5077693;28;20549;-68
2022/01/11 06:58:34;;;;;;;3.87;1.60;;;4.30;86.00;;;4.00;57.90;94725.16;5078819;28;20459;-62
2022/01/11 07:01:01;;;;;;;3.07;2.07;;;4.30;85.70;;;3.93;58.36;94725.59;5083738;28;20458;-67
2022/01/11 07:03:29;;;;;;;1.60;1.50;;;4.20;86.30;;;3.88;59.71;94738.06;5075075;28;20943;-66
2022/01/11 07:05:56;;;;;;;2.57;2.20;;;4.10;87.10;;;3.86;59.12;94731.31;5075422;28;20563;-62
2022/01/11 07:08:24;;;;;;;3.00;2.50;;;4.10;87.40;;;3.82;58.08;94732.44;5074393;28;20454;-62
2022/01/11 07:10:52;;;;;;;4.87;2.83;;;4.10;86.40;;;3.78;58.21;94739.63;5079421;28;21014;-61
2022/01/11 07:13:20;;;;;;;3.20;2.90;;;4.10;85.70;;;3.73;58.54;94733.88;5076981;28;20566;-66
2022/01/11 07:15:48;;;;;;;4.50;2.33;;;4.00;86.40;;;3.69;59.38;94750.66;5074476;28;20463;-62
2022/01/11 07:18:15;;;;;;;2.50;1.90;;;4.00;87.80;;;3.65;59.13;94742.19;5076650;28;20462;-67
2022/01/11 07:20:43;;;;;;;4.73;3.30;;;3.90;87.60;;;3.66;59.28;94749.06;5078305;28;20828;-62
2022/01/11 07:23:11;;;;;;;2.33;2.10;;;3.90;87.20;;;3.64;58.93;94748.34;5078115;28;20577;-66
2022/01/11 07:25:38;;;;;;;3.00;2.27;;;3.90;86.70;;;3.64;58.96;94755.28;5078797;28;20463;-61
2022/01/11 07:28:06;;;;;;;1.57;1.47;;;3.90;87.20;;;3.62;58.91;94757.19;5079327;28;20857;-66
2022/01/11 07:30:35;;;;;;;4.30;2.50;;;3.90;86.60;;;3.57;58.79;94765.28;5073044;28;20475;-62
2022/01/11 07:33:02;;;;;;;4.87;2.60;;;3.80;86.20;;;3.54;58.13;94766.28;5071696;28;20490;-62
2022/01/11 07:35:30;;;;;;;5.10;3.20;;;3.80;86.10;;;3.54;58.69;94771.50;5074824;28;20883;-67
2022/01/11 07:37:57;;;;;;;4.03;3.20;;;3.80;87.10;;;3.53;57.76;94779.41;5072503;28;20453;-62
2022/01/11 07:40:24;;;;;;;4.77;3.37;;;3.80;86.00;;;3.51;59.05;94773.47;5074635;28;20543;-66
2022/01/11 07:42:52;;;;;;;4.53;3.70;;;3.80;87.10;;;3.49;58.96;94773.56;5077270;28;20465;-67
2022/01/11 07:45:19;;;;;;;3.27;2.33;;;3.70;87.00;;;3.45;58.94;94771.28;5079832;28;20474;-66
2022/01/11 07:47:48;;;;;;;1.90;1.80;;;3.70;86.20;;;3.41;58.40;94771.47;5074991;28;20534;-67
2022/01/11 07:50:15;;;;;;;1.63;1.53;;;3.70;86.40;;;3.37;59.39;94779.56;5077000;28;20470;-67
2022/01/11 07:52:42;;;;;;;1.87;1.77;;;3.70;87.00;;;3.35;59.11;94771.88;5078482;28;20509;-66
2022/01/11 07:55:10;;;;;;;3.27;2.40;;;3.60;87.40;;;3.31;59.14;94785.16;5077650;28;20462;-66
2022/01/11 07:57:38;;;;;;;2.50;2.30;;;3.60;87.20;;;3.28;58.97;94780.16;5074826;28;20471;-67
2022/01/11 08:00:07;;;;;;;2.00;1.80;;;3.60;87.00;;;3.20;58.79;94794.47;5073390;28;21070;-67
2022/01/11 08:02:34;;;;;;;2.70;2.33;;;3.50;86.80;;;3.14;58.96;94789.66;5080869;28;20443;-67
2022/01/11 08:05:04;;;;;;;2.40;1.80;;;3.40;86.70;;;3.11;59.67;94794.22;5078452;28;20480;-61
2022/01/11 08:07:31;;;;;;;2.20;1.80;;;3.40;87.20;;;3.08;59.32;94803.03;5073756;28;20839;-61
2022/01/11 08:09:59;;;;;;;2.17;1.80;;;3.40;87.10;;;3.07;59.27;94798.78;5083732;28;20995;-61
2022/01/11 08:12:26;;;;;;;2.10;1.90;;;3.40;87.30;;;3.05;59.02;94804.06;5076346;28;20490;-61
2022/01/11 08:14:53;;;;;;;2.30;2.10;;;3.40;87.50;;;3.02;59.43;94804.25;5081145;28;20442;-61
2022/01/11 08:17:21;;;;;;;2.13;1.50;;;3.30;87.20;;;2.98;59.40;94807.97;5080087;28;20645;-67
2022/01/11 08:19:48;;;;;;;1.50;1.40;;;3.30;87.00;;;2.98;59.29;94809.75;5077388;28;20451;-67
2022/01/11 08:22:17;;;;;;;1.73;1.63;;;3.30;86.60;;;2.97;58.96;94810.66;5088978;28;20447;-62
2022/01/11 08:24:45;;;;;;;2.33;1.77;;;3.30;87.00;;;2.99;59.47;94824.38;5080986;28;20950;-61
2022/01/11 08:27:12;;;;;;;1.50;1.40;;;3.30;87.30;;;2.99;58.75;94819.19;5078808;28;20450;-66
2022/01/11 08:29:42;;;;;;;2.57;2.37;;;3.30;87.40;;;2.99;58.83;94826.97;5077521;28;20544;-61
2022/01/11 08:32:09;;;;;;;2.20;2.10;;;3.30;87.00;;;2.95;59.04;94831.53;5075932;28;20486;-66
2022/01/11 08:34:39;;;;;;;2.23;1.70;;;3.30;87.00;;;2.93;58.91;94837.75;5085472;28;20465;-61
2022/01/11 08:37:08;;;;;;;6.73;2.10;;;3.20;87.40;;;2.90;59.03;94832.75;5075639;28;20435;-60
2022/01/11 08:39:37;;;;;;;1.90;1.80;;;3.20;87.30;;;2.87;58.97;94834.59;5078485;28;20447;-67
2022/01/11 08:42:05;;;;;;;2.87;2.20;;;3.20;87.70;;;2.85;59.75;94839.06;5078004;28;20542;-61
2022/01/11 08:44:32;;;;;;;1.40;1.30;;;3.20;87.40;;;2.82;59.38;94841.84;5080367;28;20450;-66
2022/01/11 08:46:59;;;;;;;1.40;1.30;;;3.20;88.30;;;2.84;59.34;94840.00;5079109;28;20518;-61
2022/01/11 08:49:27;;;;;;;1.60;1.50;;;3.10;87.80;;;2.86;59.79;94848.50;5074932;28;20451;-67
2022/01/11 08:51:54;;;;;;;2.47;2.27;;;3.20;88.40;;;2.87;59.72;94855.38;5081301;28;20983;-61
2022/01/11 08:54:24;;;;;;;2.03;1.83;;;3.20;88.50;;;2.83;59.36;94853.91;5080486;28;20450;-66
2022/01/11 08:56:55;;;;;;;6.20;2.30;;;3.20;87.90;;;2.85;60.35;94867.66;5082734;28;20465;-66
2022/01/11 08:59:22;;;;;;;2.90;1.90;;;3.20;88.50;;;2.86;60.56;94874.50;5079642;28;20466;-61
2022/01/11 09:01:50;;;;;;;2.63;2.17;;;3.20;88.50;;;2.86;60.05;94871.91;5077141;28;20474;-61
2022/01/11 09:04:17;;;;;;;3.17;2.97;;;3.20;88.50;;;2.85;60.32;94882.38;5075763;28;20450;-61
2022/01/11 09:06:45;;;;;;;2.67;2.43;;;3.20;88.80;;;2.86;60.98;94878.84;5074909;28;20476;-61
2022/01/11 09:09:13;;;;;;;6.00;2.93;;;3.20;89.70;;;2.89;60.93;94888.25;5075263;28;21005;-65
2022/01/11 09:11:42;;;;;;;7.10;2.63;;;3.20;89.60;;;2.89;61.10;94883.03;5081715;28;20471;-61
2022/01/11 09:14:11;;;;;;;5.43;3.43;;;3.20;90.10;;;2.92;60.81;94894.06;5075684;28;20483;-67
2022/01/11 09:16:38;;;;;;;3.00;2.10;;;3.20;90.20;;;2.91;60.04;94894.16;5077713;28;20471;-66
2022/01/11 09:19:06;;;;;;;4.57;3.60;;;3.20;89.30;;;2.83;60.61;94877.28;5088387;28;20522;-61
2022/01/11 09:21:34;;;;;;;7.17;3.67;;;3.20;89.10;;;2.80;60.48;94890.44;5081125;28;20940;-62
2022/01/11 09:24:02;;;;;;;9.40;3.90;;;3.20;89.00;;;2.80;60.05;94880.06;5078915;28;20583;-61
2022/01/11 09:26:30;;;;;;;4.37;3.27;;;3.10;89.20;;;2.82;60.04;94890.34;5076147;28;20893;-61
2022/01/11 09:28:57;;;;;;;5.07;3.80;;;3.10;89.10;;;2.85;60.84;94888.44;5077817;28;20454;-60
2022/01/11 09:31:26;;;;;;;3.43;2.80;;;3.20;89.70;;;2.88;60.25;94897.78;5078815;28;20481;-61
2022/01/11 09:33:53;;;;;;;2.70;2.50;;;3.20;89.60;;;2.89;61.05;94893.44;5080227;28;20854;-67
2022/01/11 09:36:21;;;;;;;3.93;2.73;;;3.20;89.90;;;2.91;61.25;94894.16;5076997;28;20479;-67
2022/01/11 09:38:48;;;;;;;1.70;1.60;;;3.20;89.60;;;2.92;60.56;94888.06;5078310;28;20831;-61
2022/01/11 09:41:16;;;;;;;1.90;1.80;;;3.20;89.40;;;2.90;60.68;94885.56;5076393;28;20482;-67
2022/01/11 09:43:45;;;;;;;2.27;2.17;;;3.20;89.70;;;2.89;61.09;94889.06;5088552;28;20450;-67
2022/01/11 09:46:13;;;;;;;3.57;3.23;;;3.20;89.70;;;2.91;61.13;94882.00;5083086;28;20600;-61
2022/01/11 09:48:43;;;;;;;4.50;3.33;;;3.20;90.20;;;2.95;60.86;94886.09;5078339;28;20471;-67
2022/01/11 09:51:10;;;;;;;5.03;2.87;;;3.20;90.00;;;2.98;61.20;94892.88;5081994;28;20461;-61
2022/01/11 09:53:37;;;;;;;4.57;3.10;;;3.30;89.90;;;3.01;60.60;94897.88;5078901;28;20482;-61
2022/01/11 09:56:05;;;;;;;3.07;2.47;;;3.30;89.70;;;3.05;59.92;94901.94;5075682;28;20546;-66
2022/01/11 09:58:32;;;;;;;7.23;3.67;;;3.30;89.50;;;3.12;60.49;94903.25;5077745;28;20958;-66
2022/01/11 10:01:00;;;;;;;2.20;2.10;;;3.40;89.40;;;3.16;59.90;94901.28;5077583;28;20470;-61
2022/01/11 10:03:27;;;;;;;2.63;2.43;;;3.40;88.40;;;3.18;59.97;94896.84;5072485;28;20782;-61
2022/01/11 10:05:56;;;;;;;3.13;2.83;;;3.50;88.30;;;3.20;59.88;94903.59;5076628;28;20523;-61
2022/01/11 10:08:25;;;;;;;4.03;3.53;;;3.50;88.70;;;3.22;59.63;94898.31;5074778;28;20443;-66
2022/01/11 10:10:53;;;;;;;8.43;4.20;;;3.50;88.80;;;3.23;59.89;94893.03;5078629;28;20472;-61
2022/01/11 10:13:32;;;;;;;5.17;4.10;;;3.50;88.70;;;3.27;59.78;94895.44;5077247;28;20540;-66
2022/01/11 10:16:20;;;;;;;5.67;4.57;;;3.50;88.80;;;3.30;60.17;94897.84;5083235;28;20465;-66
2022/01/11 10:18:48;;;;;;;2.80;2.50;;;3.60;88.90;;;3.31;60.30;94899.53;5083395;28;20451;-61
2022/01/11 10:21:38;;;;;;;6.80;4.73;;;3.60;88.90;;;3.32;60.56;94904.63;5077430;28;21034;-67
2022/01/11 10:24:32;;;;;;;4.90;3.83;;;3.60;88.90;;;3.34;59.59;94904.53;5079948;28;20867;-66
2022/01/11 10:27:02;;;;;;;10.10;5.53;;;3.60;88.90;;;3.34;60.36;94899.34;5075181;28;20462;-62
2022/01/11 10:29:37;;;;;;;32.37;6.00;;;3.60;88.90;;;3.33;60.28;94902.84;5081412;28;20474;-61
2022/01/11 10:32:23;;;;;;;6.50;2.93;;;3.60;89.40;;;3.33;60.06;94908.06;5077697;28;20454;-65
2022/01/11 10:34:53;;;;;;;10.73;4.70;;;3.60;89.20;;;3.33;60.46;94900.25;5080427;28;20487;-66
2022/01/11 10:37:35;;;;;;;12.50;5.27;;;3.60;89.80;;;3.37;60.93;94909.53;5079191;28;20458;-67